createdAt,value
2022-09-14T00:01:14.436Z,9.56
2022-09-14T00:03:40.800Z,9.51
2022-09-14T00:06:09.509Z,9.60
2022-09-14T00:08:36.492Z,9.54
2022-09-14T00:11:08.713Z,9.59
2022-09-14T00:13:36.164Z,9.59
2022-09-14T00:16:05.038Z,9.57
2022-09-14T00:18:32.117Z,9.58
2022-09-14T00:21:03.453Z,9.55
2022-09-14T00:23:30.086Z,9.59
2022-09-14T00:26:03.748Z,9.58
2022-09-14T00:28:30.388Z,9.57
2022-09-14T00:30:57.083Z,9.64
2022-09-14T00:33:23.769Z,9.65
2022-09-14T00:35:50.408Z,9.62
2022-09-14T00:38:17.001Z,9.59
2022-09-14T00:40:43.567Z,9.65
2022-09-14T00:43:14.925Z,9.63
2022-09-14T00:45:41.713Z,9.61
2022-09-14T00:48:08.483Z,9.63
2022-09-14T00:50:35.307Z,9.61
2022-09-14T00:53:02.023Z,9.63
2022-09-14T00:55:28.781Z,9.68
2022-09-14T00:57:55.536Z,9.66
2022-09-14T01:00:27.547Z,9.65
2022-09-14T01:02:54.414Z,9.69
2022-09-14T01:05:30.174Z,9.69
2022-09-14T01:08:18.239Z,9.68
2022-09-14T01:11:35.403Z,9.73
2022-09-14T01:14:09.051Z,9.76
2022-09-14T01:16:44.821Z,9.76
2022-09-14T01:19:22.299Z,9.80
2022-09-14T01:21:50.280Z,9.84
2022-09-14T01:24:40.091Z,9.80
2022-09-14T01:27:27.148Z,9.81
2022-09-14T01:30:09.476Z,9.66
2022-09-14T01:32:39.844Z,9.74
2022-09-14T01:35:16.752Z,9.81
2022-09-14T01:37:51.238Z,9.80
2022-09-14T01:40:41.149Z,9.81
2022-09-14T01:43:30.973Z,9.81
2022-09-14T01:46:05.482Z,9.84
2022-09-14T01:48:37.061Z,9.75
2022-09-14T01:51:08.178Z,9.76
2022-09-14T01:53:43.023Z,9.81
2022-09-14T01:56:20.457Z,9.86
2022-09-14T01:59:05.487Z,9.91
2022-09-14T02:01:37.959Z,9.87
2022-09-14T02:04:08.680Z,9.91
2022-09-14T02:06:39.262Z,9.95
2022-09-14T02:09:08.034Z,9.87
2022-09-14T02:11:35.031Z,9.93
2022-09-14T02:14:01.949Z,9.89
2022-09-14T02:16:29.078Z,9.84
2022-09-14T02:18:55.778Z,9.90
2022-09-14T02:21:26.049Z,9.89
2022-09-14T02:23:53.052Z,9.89
2022-09-14T02:26:20.981Z,9.95
2022-09-14T02:28:47.877Z,9.81
2022-09-14T02:31:32.883Z,9.92
2022-09-14T02:34:31.188Z,9.96
2022-09-14T02:37:12.257Z,9.92
2022-09-14T02:40:13.925Z,9.92
2022-09-14T02:42:59.005Z,9.92
2022-09-14T02:45:45.069Z,9.95
2022-09-14T02:48:39.448Z,9.92
2022-09-14T02:51:24.674Z,9.92
2022-09-14T02:54:01.741Z,9.88
2022-09-14T02:56:29.250Z,9.90
2022-09-14T02:58:56.571Z,9.88
2022-09-14T03:01:24.754Z,9.86
2022-09-14T03:03:51.717Z,9.87
2022-09-14T03:06:18.315Z,9.88
2022-09-14T03:08:45.237Z,9.94
2022-09-14T03:11:12.312Z,9.91
2022-09-14T03:13:39.429Z,9.79
2022-09-14T03:16:14.153Z,9.94
2022-09-14T03:18:41.375Z,9.94
2022-09-14T03:21:13.178Z,9.96
2022-09-14T03:23:48.549Z,9.87
2022-09-14T03:26:17.882Z,9.91
2022-09-14T03:28:45.049Z,9.91
2022-09-14T03:31:12.995Z,9.94
2022-09-14T03:33:40.129Z,9.88
2022-09-14T03:36:16.125Z,9.95
2022-09-14T03:38:47.959Z,9.91
2022-09-14T03:41:14.952Z,9.93
2022-09-14T03:43:43.274Z,9.95
2022-09-14T03:46:21.505Z,9.93
2022-09-14T03:48:48.522Z,10.00
2022-09-14T03:51:16.354Z,9.90
2022-09-14T03:53:44.522Z,9.79
2022-09-14T03:56:17.199Z,9.91
2022-09-14T03:58:45.509Z,9.92
2022-09-14T04:01:16.201Z,9.99
2022-09-14T04:03:43.610Z,10.04
2022-09-14T04:06:10.783Z,10.01
2022-09-14T04:08:39.532Z,10.03
2022-09-14T04:13:46.837Z,9.99
2022-09-14T04:16:15.213Z,10.07
2022-09-14T04:18:42.288Z,9.68
2022-09-14T04:21:13.732Z,10.10
2022-09-14T04:23:57.049Z,10.16
2022-09-14T04:26:29.677Z,10.09
2022-09-14T04:28:57.370Z,9.94
2022-09-14T04:31:25.358Z,9.63
2022-09-14T04:34:31.315Z,9.44
2022-09-14T04:36:58.037Z,10.08
2022-09-14T04:39:26.392Z,10.28
2022-09-14T04:41:53.026Z,10.16
2022-09-14T04:44:19.670Z,10.10
2022-09-14T04:46:47.149Z,10.34
2022-09-14T04:49:15.684Z,10.31
2022-09-14T04:51:42.332Z,10.41
2022-09-14T04:54:10.178Z,10.31
2022-09-14T04:56:37.166Z,10.43
2022-09-14T04:59:04.592Z,10.45
2022-09-14T05:01:34.615Z,10.26
2022-09-14T05:04:01.691Z,10.14
2022-09-14T05:06:30.438Z,10.11
2022-09-14T05:08:57.920Z,10.01
2022-09-14T05:11:27.181Z,10.09
2022-09-14T05:13:55.717Z,10.12
2022-09-14T05:16:38.786Z,10.22
2022-09-14T05:19:07.618Z,10.13
2022-09-14T05:21:36.301Z,10.42
2022-09-14T05:24:05.321Z,10.31
2022-09-14T05:26:32.362Z,10.55
2022-09-14T05:29:01.631Z,10.53
2022-09-14T05:31:29.518Z,10.88
2022-09-14T05:33:56.469Z,10.59
2022-09-14T05:36:28.389Z,10.93
2022-09-14T05:38:55.261Z,10.86
2022-09-14T05:41:21.908Z,10.59
2022-09-14T05:43:48.568Z,10.53
2022-09-14T05:46:17.293Z,10.54
2022-09-14T05:48:44.127Z,10.53
2022-09-14T05:51:15.917Z,10.66
2022-09-14T05:53:43.974Z,10.85
2022-09-14T05:56:13.608Z,10.75
2022-09-14T05:58:41.391Z,10.64
2022-09-14T06:01:14.994Z,10.78
2022-09-14T06:03:42.326Z,10.85
2022-09-14T06:06:10.578Z,10.87
2022-09-14T06:08:37.957Z,11.06
2022-09-14T06:11:06.451Z,11.24
2022-09-14T06:13:33.557Z,11.03
2022-09-14T06:16:05.365Z,11.27
2022-09-14T06:18:33.873Z,11.30
2022-09-14T06:21:00.589Z,11.22
2022-09-14T06:23:28.474Z,11.33
2022-09-14T06:25:56.219Z,11.26
2022-09-14T06:28:24.097Z,11.48
2022-09-14T06:30:51.057Z,11.56
2022-09-14T06:33:18.693Z,11.55
2022-09-14T06:35:57.983Z,11.61
2022-09-14T06:38:25.217Z,11.70
2022-09-14T06:40:57.038Z,11.75
2022-09-14T06:43:28.129Z,11.85
2022-09-14T06:45:59.038Z,12.10
2022-09-14T06:48:27.027Z,11.84
2022-09-14T06:50:53.742Z,11.98
2022-09-14T06:53:20.362Z,12.25
2022-09-14T06:55:47.533Z,12.29
2022-09-14T06:58:14.562Z,12.27
2022-09-14T07:00:41.200Z,12.17
2022-09-14T07:03:07.999Z,12.23
2022-09-14T07:05:34.883Z,12.12
2022-09-14T07:08:01.790Z,12.07
2022-09-14T07:10:28.543Z,12.00
2022-09-14T07:13:12.756Z,12.40
2022-09-14T07:15:39.439Z,12.31
2022-09-14T07:18:06.205Z,12.45
2022-09-14T07:20:33.770Z,12.34
2022-09-14T07:23:00.369Z,12.54
2022-09-14T07:25:26.930Z,12.85
2022-09-14T07:27:53.545Z,12.85
2022-09-14T07:30:20.581Z,12.99
2022-09-14T07:32:47.179Z,12.89
2022-09-14T07:35:13.823Z,12.45
2022-09-14T07:37:40.454Z,12.33
2022-09-14T07:40:07.979Z,12.59
2022-09-14T07:42:34.646Z,12.72
2022-09-14T07:45:01.313Z,12.67
2022-09-14T07:47:27.921Z,13.14
2022-09-14T07:49:54.493Z,13.35
2022-09-14T07:52:21.223Z,13.65
2022-09-14T07:54:47.834Z,13.90
2022-09-14T07:57:14.865Z,13.64
2022-09-14T07:59:41.655Z,13.86
2022-09-14T08:02:10.071Z,13.96
2022-09-14T08:04:37.745Z,13.82
2022-09-14T08:07:04.400Z,13.95
2022-09-14T08:09:31.080Z,13.93
2022-09-14T08:11:57.995Z,14.17
2022-09-14T08:14:25.416Z,14.46
2022-09-14T08:16:52.492Z,14.64
2022-09-14T08:19:21.060Z,14.46
2022-09-14T08:21:48.530Z,14.59
2022-09-14T08:24:18.507Z,14.70
2022-09-14T08:26:45.306Z,14.68
2022-09-14T08:29:13.700Z,14.81
2022-09-14T08:31:40.938Z,14.26
2022-09-14T08:34:07.946Z,14.54
2022-09-14T08:36:37.598Z,14.86
2022-09-14T08:39:06.482Z,14.86
2022-09-14T08:41:43.415Z,14.82
2022-09-14T08:44:28.837Z,14.81
2022-09-14T08:47:16.672Z,14.69
2022-09-14T08:49:47.846Z,15.05
2022-09-14T08:52:24.576Z,14.97
2022-09-14T08:54:55.302Z,14.49
2022-09-14T08:57:44.327Z,14.47
2022-09-14T09:00:44.350Z,14.28
2022-09-14T09:03:49.981Z,14.45
2022-09-14T09:06:41.592Z,14.39
2022-09-14T09:09:18.208Z,14.47
2022-09-14T09:11:48.670Z,14.35
2022-09-14T09:14:31.988Z,14.28
2022-09-14T09:17:04.710Z,14.20
2022-09-14T09:19:42.069Z,14.35
2022-09-14T09:22:22.150Z,14.45
2022-09-14T09:24:55.362Z,14.38
2022-09-14T09:27:24.198Z,14.48
2022-09-14T09:29:51.386Z,14.45
2022-09-14T09:32:25.601Z,14.39
2022-09-14T09:34:52.374Z,14.23
2022-09-14T09:37:22.279Z,14.10
2022-09-14T09:39:50.787Z,13.97
2022-09-14T09:42:26.235Z,13.90
2022-09-14T09:45:02.575Z,13.77
2022-09-14T09:47:41.610Z,13.68
2022-09-14T09:50:14.708Z,13.83
2022-09-14T09:52:51.442Z,13.81
2022-09-14T09:55:20.310Z,13.82
2022-09-14T09:57:47.294Z,13.80
2022-09-14T10:00:14.294Z,13.81
2022-09-14T10:02:41.695Z,13.79
2022-09-14T10:05:12.332Z,13.86
2022-09-14T10:08:02.761Z,13.86
2022-09-14T10:10:35.493Z,13.94
2022-09-14T10:13:04.153Z,13.85
2022-09-14T10:15:33.252Z,13.95
2022-09-14T10:18:09.434Z,13.99
2022-09-14T10:20:46.744Z,14.02
2022-09-14T10:23:19.840Z,14.15
2022-09-14T10:25:48.337Z,14.19
2022-09-14T10:28:29.902Z,14.29
2022-09-14T10:31:19.934Z,14.38
2022-09-14T10:33:52.617Z,14.39
2022-09-14T10:36:25.642Z,14.36
2022-09-14T10:38:58.652Z,14.39
2022-09-14T10:41:27.219Z,14.47
2022-09-14T10:44:12.272Z,14.30
2022-09-14T10:47:04.667Z,14.40
2022-09-14T10:50:05.919Z,14.68
2022-09-14T10:52:51.137Z,14.95
2022-09-14T10:55:42.293Z,15.01
2022-09-14T10:58:47.584Z,15.23
2022-09-14T11:01:40.488Z,15.41
2022-09-14T11:04:22.349Z,15.44
2022-09-14T11:07:12.474Z,15.47
2022-09-14T11:09:54.921Z,15.53
2022-09-14T11:12:40.118Z,15.44
2022-09-14T11:15:20.398Z,15.33
2022-09-14T11:17:59.017Z,15.11
2022-09-14T11:20:43.981Z,14.92
2022-09-14T11:23:35.781Z,14.93
2022-09-14T11:26:17.327Z,15.03
2022-09-14T11:28:48.551Z,15.06
2022-09-14T11:31:32.391Z,14.94
2022-09-14T11:34:20.526Z,14.71
2022-09-14T11:36:55.121Z,14.60
2022-09-14T11:39:29.413Z,14.67
2022-09-14T11:42:02.606Z,15.04
2022-09-14T11:44:37.565Z,15.14
2022-09-14T11:47:08.005Z,15.25
2022-09-14T11:49:42.145Z,15.13
2022-09-14T11:52:19.553Z,15.06
2022-09-14T11:54:47.037Z,15.14
2022-09-14T11:57:19.258Z,15.13
2022-09-14T11:59:51.801Z,15.15
2022-09-14T12:02:30.560Z,15.11
2022-09-14T12:05:10.377Z,15.19
2022-09-14T12:07:40.698Z,15.03
2022-09-14T12:10:16.803Z,15.00
2022-09-14T12:12:54.334Z,14.53
2022-09-14T12:15:30.205Z,14.61
2022-09-14T12:18:22.056Z,14.50
2022-09-14T12:20:59.654Z,14.34
2022-09-14T12:23:30.726Z,14.14
2022-09-14T12:26:00.029Z,14.11
2022-09-14T12:28:34.761Z,14.17
2022-09-14T12:31:02.866Z,14.30
2022-09-14T12:33:32.640Z,14.29
2022-09-14T12:35:59.959Z,14.43
2022-09-14T12:38:49.779Z,14.41
2022-09-14T12:41:19.358Z,14.58
2022-09-14T12:43:48.921Z,14.63
2022-09-14T12:46:21.823Z,14.73
2022-09-14T12:48:48.570Z,14.92
2022-09-14T12:51:27.059Z,15.22
2022-09-14T12:54:09.519Z,15.25
2022-09-14T12:56:46.991Z,15.24
2022-09-14T12:59:33.763Z,15.34
2022-09-14T13:02:21.919Z,15.27
2022-09-14T13:04:53.356Z,14.83
2022-09-14T13:07:21.380Z,14.83
2022-09-14T13:09:54.976Z,14.47
2022-09-14T13:12:44.944Z,14.44
2022-09-14T13:15:16.808Z,14.42
2022-09-14T13:18:01.367Z,14.11
2022-09-14T13:20:29.615Z,14.11
2022-09-14T13:22:58.272Z,13.87
2022-09-14T13:25:36.454Z,13.96
2022-09-14T13:28:14.611Z,13.91
2022-09-14T13:30:44.874Z,13.76
2022-09-14T13:33:18.177Z,13.73
2022-09-14T13:35:53.527Z,13.46
2022-09-14T13:38:25.748Z,13.66
2022-09-14T13:40:54.798Z,13.75
2022-09-14T13:43:22.403Z,13.85
2022-09-14T13:45:50.280Z,13.98
2022-09-14T13:48:17.744Z,14.14
2022-09-14T13:50:48.327Z,13.96
2022-09-14T13:53:48.707Z,14.35
2022-09-14T13:56:31.559Z,15.03
2022-09-14T13:59:23.832Z,15.50
2022-09-14T14:01:58.877Z,15.28
2022-09-14T14:04:30.034Z,15.39
2022-09-14T14:07:02.936Z,15.29
2022-09-14T14:09:47.997Z,15.64
2022-09-14T14:12:22.494Z,15.68
2022-09-14T14:15:00.106Z,15.82
2022-09-14T14:17:29.665Z,15.87
2022-09-14T14:19:58.678Z,16.17
2022-09-14T14:22:35.544Z,16.23
2022-09-14T14:25:18.672Z,16.09
2022-09-14T14:27:47.495Z,15.87
2022-09-14T14:30:15.621Z,15.68
2022-09-14T14:32:42.527Z,15.95
2022-09-14T14:35:30.505Z,15.68
2022-09-14T14:37:58.235Z,16.00
2022-09-14T14:40:27.348Z,16.00
2022-09-14T14:42:54.907Z,15.80
2022-09-14T14:45:26.470Z,15.86
2022-09-14T14:47:54.965Z,15.87
2022-09-14T14:50:30.760Z,15.80
2022-09-14T14:52:57.639Z,15.81
2022-09-14T14:55:25.797Z,15.52
2022-09-14T14:57:52.462Z,15.64
2022-09-14T15:00:24.267Z,15.60
2022-09-14T15:02:51.211Z,15.55
2022-09-14T15:05:18.567Z,15.57
2022-09-14T15:07:45.909Z,15.51
2022-09-14T15:10:15.738Z,15.48
2022-09-14T15:12:42.829Z,15.41
2022-09-14T15:15:14.140Z,15.21
2022-09-14T15:17:41.000Z,15.35
2022-09-14T15:20:08.400Z,15.35
2022-09-14T15:22:36.258Z,15.37
2022-09-14T15:25:04.653Z,15.29
2022-09-14T15:27:31.815Z,15.24
2022-09-14T15:29:58.378Z,15.08
2022-09-14T15:32:25.184Z,15.33
2022-09-14T15:34:54.166Z,15.26
2022-09-14T15:37:20.794Z,15.11
2022-09-14T15:39:50.601Z,15.10
2022-09-14T15:42:18.331Z,15.10
2022-09-14T15:44:45.172Z,14.80
2022-09-14T15:47:14.762Z,14.72
2022-09-14T15:49:42.548Z,14.98
2022-09-14T15:52:10.625Z,14.97
2022-09-14T15:54:38.246Z,14.91
2022-09-14T15:57:07.134Z,14.90
2022-09-14T15:59:33.780Z,14.84
2022-09-14T16:02:00.575Z,14.65
2022-09-14T16:04:27.663Z,14.49
2022-09-14T16:06:54.432Z,14.37
2022-09-14T16:09:22.505Z,14.21
2022-09-14T16:11:49.649Z,13.94
2022-09-14T16:14:16.492Z,13.87
2022-09-14T16:16:43.198Z,13.68
2022-09-14T16:19:12.623Z,13.53
2022-09-14T16:21:40.409Z,13.36
2022-09-14T16:24:46.996Z,13.21
2022-09-14T16:27:13.621Z,13.14
2022-09-14T16:29:40.738Z,13.07
2022-09-14T16:32:07.493Z,12.99
2022-09-14T16:34:34.260Z,13.03
2022-09-14T16:37:00.919Z,12.98
2022-09-14T16:39:29.798Z,12.88
2022-09-14T16:41:56.805Z,12.82
2022-09-14T16:44:25.134Z,12.71
2022-09-14T16:46:53.262Z,12.67
2022-09-14T16:49:26.351Z,12.57
2022-09-14T16:51:54.533Z,12.60
2022-09-14T16:54:22.851Z,12.61
2022-09-14T16:56:49.681Z,12.56
2022-09-14T16:59:17.871Z,12.57
2022-09-14T17:01:47.805Z,12.65
2022-09-14T17:04:21.514Z,12.69
2022-09-14T17:06:49.281Z,12.72
2022-09-14T17:09:29.290Z,12.67
2022-09-14T17:11:57.047Z,12.54
2022-09-14T17:14:27.321Z,12.54
2022-09-14T17:16:54.266Z,12.37
2022-09-14T17:19:20.964Z,12.44
2022-09-14T17:21:48.515Z,12.35
2022-09-14T17:24:16.068Z,12.45
2022-09-14T17:26:42.918Z,12.35
2022-09-14T17:29:10.452Z,12.27
2022-09-14T17:31:39.311Z,12.37
2022-09-14T17:34:07.574Z,12.30
2022-09-14T17:36:34.245Z,12.27
2022-09-14T17:39:04.345Z,12.33
2022-09-14T17:41:33.262Z,12.32
2022-09-14T17:44:02.818Z,12.30
2022-09-14T17:46:30.491Z,12.27
2022-09-14T17:48:58.758Z,12.26
2022-09-14T17:51:27.208Z,12.26
2022-09-14T17:53:55.418Z,12.37
2022-09-14T17:56:25.294Z,12.52
2022-09-14T17:59:02.395Z,12.57
2022-09-14T18:01:29.943Z,12.48
2022-09-14T18:03:59.009Z,12.48
2022-09-14T18:06:31.161Z,12.53
2022-09-14T18:09:03.644Z,12.53
2022-09-14T18:11:31.311Z,12.52
2022-09-14T18:13:58.083Z,12.42
2022-09-14T18:16:25.192Z,12.06
2022-09-14T18:18:52.110Z,12.34
2022-09-14T18:21:18.858Z,12.21
2022-09-14T18:23:53.301Z,12.42
2022-09-14T18:26:20.220Z,12.48
2022-09-14T18:28:47.340Z,12.47
2022-09-14T18:31:16.767Z,12.44
2022-09-14T18:33:50.670Z,12.55
2022-09-14T18:36:17.525Z,12.42
2022-09-14T18:38:48.753Z,12.37
2022-09-14T18:41:16.809Z,12.39
2022-09-14T18:43:48.570Z,12.29
2022-09-14T18:46:15.925Z,12.34
2022-09-14T18:48:45.939Z,12.27
2022-09-14T18:51:14.037Z,12.23
2022-09-14T18:53:40.986Z,12.26
2022-09-14T18:56:10.297Z,12.12
2022-09-14T18:58:38.596Z,12.06
2022-09-14T19:01:05.640Z,11.94
2022-09-14T19:03:32.805Z,11.98
2022-09-14T19:06:07.477Z,11.92
2022-09-14T19:08:34.321Z,11.92
2022-09-14T19:11:08.854Z,11.92
2022-09-14T19:13:35.688Z,11.94
2022-09-14T19:16:10.109Z,11.83
2022-09-14T19:18:37.191Z,11.78
2022-09-14T19:21:08.420Z,11.72
2022-09-14T19:23:36.513Z,11.61
2022-09-14T19:26:05.808Z,11.62
2022-09-14T19:28:33.668Z,11.60
2022-09-14T19:31:00.689Z,11.52
2022-09-14T19:33:27.673Z,11.26
2022-09-14T19:35:54.346Z,11.44
2022-09-14T19:38:39.211Z,11.40
2022-09-14T19:41:06.406Z,11.41
2022-09-14T19:43:34.098Z,11.35
2022-09-14T19:46:08.758Z,11.43
2022-09-14T19:48:35.440Z,11.41
2022-09-14T19:51:10.338Z,11.47
2022-09-14T19:53:37.639Z,11.47
2022-09-14T19:56:06.679Z,11.44
2022-09-14T19:58:38.493Z,11.44
2022-09-14T20:01:06.084Z,11.41
2022-09-14T20:03:33.350Z,11.38
2022-09-14T20:06:01.727Z,11.37
2022-09-14T20:08:29.338Z,11.45
2022-09-14T20:11:28.920Z,11.40
2022-09-14T20:13:58.040Z,11.48
2022-09-14T20:16:25.889Z,11.43
2022-09-14T20:18:52.888Z,11.37
2022-09-14T20:21:22.190Z,11.33
2022-09-14T20:24:16.687Z,11.29
2022-09-14T20:26:49.074Z,11.30
2022-09-14T20:29:17.475Z,11.30
2022-09-14T20:31:44.521Z,11.30
2022-09-14T20:34:11.765Z,11.25
2022-09-14T20:36:38.838Z,11.32
2022-09-14T20:39:05.873Z,11.30
2022-09-14T20:41:34.368Z,11.25
2022-09-14T20:44:01.178Z,11.28
2022-09-14T20:46:36.282Z,11.11
2022-09-14T20:49:04.338Z,11.29
2022-09-14T20:51:31.608Z,11.29
2022-09-14T20:53:58.588Z,11.33
2022-09-14T20:56:28.368Z,11.33
2022-09-14T20:58:58.474Z,11.30
2022-09-14T21:01:27.617Z,11.27
2022-09-14T21:03:55.333Z,11.22
2022-09-14T21:06:24.238Z,11.27
2022-09-14T21:08:51.247Z,11.41
2022-09-14T21:11:25.714Z,11.40
2022-09-14T21:13:53.777Z,11.39
2022-09-14T21:16:20.391Z,11.42
2022-09-14T21:18:48.461Z,11.40
2022-09-14T21:21:17.444Z,11.38
2022-09-14T21:23:44.398Z,11.39
2022-09-14T21:26:12.836Z,11.38
2022-09-14T21:28:40.966Z,11.38
2022-09-14T21:31:20.124Z,11.40
2022-09-14T21:33:49.798Z,11.41
2022-09-14T21:36:25.074Z,11.47
2022-09-14T21:38:52.372Z,11.47
2022-09-14T21:41:19.707Z,11.37
2022-09-14T21:43:47.202Z,11.35
2022-09-14T21:46:14.602Z,11.38
2022-09-14T21:48:41.284Z,11.31
2022-09-14T21:51:15.495Z,11.23
2022-09-14T21:53:48.078Z,11.21
2022-09-14T21:56:16.355Z,11.24
2022-09-14T21:58:43.780Z,11.25
2022-09-14T22:01:12.159Z,11.30
2022-09-14T22:03:39.227Z,11.27
2022-09-14T22:06:11.132Z,11.24
2022-09-14T22:08:37.739Z,11.24
2022-09-14T22:11:04.307Z,11.28
2022-09-14T22:13:33.723Z,11.28
2022-09-14T22:16:26.552Z,11.28
2022-09-14T22:18:58.131Z,11.32
2022-09-14T22:21:27.280Z,11.12
2022-09-14T22:23:56.626Z,11.27
2022-09-14T22:26:26.129Z,11.25
2022-09-14T22:28:57.330Z,11.29
2022-09-14T22:31:24.119Z,11.17
2022-09-14T22:33:51.230Z,11.21
2022-09-14T22:36:18.019Z,11.21
2022-09-14T22:38:45.746Z,11.15
2022-09-14T22:41:19.850Z,11.24
2022-09-14T22:43:47.099Z,11.22
2022-09-14T22:46:14.651Z,11.13
2022-09-14T22:48:41.470Z,11.16
2022-09-14T22:51:11.366Z,11.19
2022-09-14T22:53:38.084Z,11.26
2022-09-14T22:56:19.732Z,11.28
2022-09-14T22:58:47.278Z,11.23
2022-09-14T23:01:16.789Z,11.17
2022-09-14T23:03:43.902Z,11.26
2022-09-14T23:06:10.923Z,11.26
2022-09-14T23:08:38.330Z,11.30
2022-09-14T23:11:08.213Z,11.30
2022-09-14T23:13:35.920Z,11.39
2022-09-14T23:16:09.341Z,11.41
2022-09-14T23:18:35.998Z,11.38
2022-09-14T23:21:03.763Z,11.42
2022-09-14T23:23:30.397Z,11.43
2022-09-14T23:26:02.458Z,11.52
2022-09-14T23:28:29.188Z,11.44
2022-09-14T23:30:55.811Z,11.59
2022-09-14T23:33:22.448Z,11.55
2022-09-14T23:35:49.741Z,11.55
2022-09-14T23:38:16.429Z,11.55
2022-09-14T23:40:43.180Z,11.55
2022-09-14T23:43:10.270Z,11.54
2022-09-14T23:45:37.018Z,11.57
2022-09-14T23:48:04.031Z,11.59
2022-09-14T23:50:31.725Z,11.50
2022-09-14T23:52:58.329Z,11.64
2022-09-14T23:55:25.214Z,11.61
2022-09-14T23:57:51.991Z,11.60
